Depesze METAR z lotnisk oddalonych od Rybnika do 200 kilometrów

LKMT - Ostrava/Mosnov, Czech Republic
Distance from station: SSW 55km
Aktualizacja: Thu, 25/04/2019 07:00 CEST
Clear
Clear
 Wind from SW
Wiatr: SW 17 km/h
Temperatura: 15°C
Punkt rosy: 9°C
Wilgotnosc: 68%
Cisnienie: 1013 hPa
Kondycja: Clear
Widocznosc: greater than 10 km
2019/04/25 05:00 LKMT 250500Z 23009KT CAVOK 15/09 Q1013 NOSIG
EPKT - Katowice/Pyrzowi, Poland
Distance from station: NE 58km
Aktualizacja: Thu, 25/04/2019 07:00 CEST
Clear
Clear
 Wind from ESE
Wiatr: ESE 13 km/h
Temperatura: 14°C
Punkt rosy: 8°C
Wilgotnosc: 67%
Cisnienie: 1013 hPa
Kondycja: Clear
Widocznosc: greater than 10 km
2019/04/25 05:00 EPKT 250500Z 12007KT CAVOK 14/08 Q1013
 
EPKK - Krakow/Balice, Poland
Distance from station: E 91km
Aktualizacja: Thu, 25/04/2019 07:00 CEST
Clear
Clear
 Wind from N
Wiatr: N 9 km/h
Temperatura: 12°C
Punkt rosy: 9°C
Wilgotnosc: 82%
Cisnienie: 1014 hPa
Kondycja: Clear
Widocznosc: greater than 10 km
2019/04/25 05:00 EPKK 250500Z 01005KT CAVOK 12/09 Q1014
LZZI - Zilina, Slovakia
Distance from station: S 95km
Aktualizacja: Thu, 25/04/2019 07:00 CEST
Few Clouds
Few Clouds
 Wind from varies
Wiatr: varies 4 km/h
Temperatura: 15°C
Punkt rosy: 9°C
Wilgotnosc: 68%
Cisnienie: 1015 hPa
Chmury: Few Clouds
Widocznosc: 10 km
Chmury-opis: Few Clouds 792 m
2019/04/25 05:00 LZZI 250500Z VRB02KT 9999 FEW026 15/09 Q1015
 
LKKU - Kunovice, Czech Republic
Distance from station: SW 139km
Aktualizacja: Thu, 25/04/2019 07:00 CEST
Clear
Clear
 Wind from SW
Wiatr: SW 9 km/h
Temperatura: 15°C
Punkt rosy: 10°C
Wilgotnosc: 72%
Kondycja: Clear
Widocznosc: greater than 10 km
2019/04/25 05:00 LKKU 250500Z 22005KT 170V250 CAVOK 15/10 Q101
EPWR - Wroclaw/Strachow, Poland
Distance from station: NW 163km
Aktualizacja: Thu, 25/04/2019 07:00 CEST
Clear
Clear
 Wind from S
Wiatr: S 7 km/h
Temperatura: 12°C
Punkt rosy: 9°C
Wilgotnosc: 82%
Cisnienie: 1012 hPa
Kondycja: Clear
Widocznosc: greater than 10 km
2019/04/25 05:00 EPWR 250500Z 19004KT 150V240 CAVOK 12/09 Q1012
 
LZSL - Sliac, Slovakia
Distance from station: SSE 168km
Aktualizacja: Thu, 25/04/2019 07:00 CEST
Clear
Clear
 Wind from varies
Wiatr: varies 4 km/h
Temperatura: 10°C
Punkt rosy: 9°C
Wilgotnosc: 94%
Cisnienie: 1017 hPa
Kondycja: Clear
Widocznosc: greater than 10 km
2019/04/25 05:00 LZSL 250500Z VRB02KT CAVOK 10/09 Q1017
LZTT - Poprad/Tatry, Slovakia
Distance from station: SE 168km
Aktualizacja: Thu, 25/04/2019 07:00 CEST
Few Clouds
Few Clouds
 Wind from SSE
Wiatr: SSE 9 km/h
Temperatura: 11°C
Punkt rosy: 8°C
Wilgotnosc: 82%
Cisnienie: 1018 hPa
Chmury: Few Clouds
Widocznosc: 10 km
Chmury-opis: Few Clouds 488 m
2019/04/25 05:00 LZTT 250500Z 16005KT 130V190 9999 FEW016 11/08 Q1018 NOSIG
 
LKTB - Brno/Turany, Czech Republic
Distance from station: SW 170km
Aktualizacja: Thu, 25/04/2019 07:00 CEST
Clear
Clear
 Wind from E
Wiatr: E 7 km/h
Temperatura: 13°C
Punkt rosy: 10°C
Wilgotnosc: 82%
Cisnienie: 1013 hPa
Kondycja: Clear
Widocznosc: greater than 10 km
2019/04/25 05:00 LKTB 250500Z 08004KT CAVOK 13/10 Q1013 NOSIG
LZPP - Piestany, Slovakia
Distance from station: SSW 171km
Aktualizacja: Thu, 25/04/2019 07:00 CEST
Clear
Clear
 Wind from SE
Wiatr: SE 24 km/h
Temperatura: 15°C
Punkt rosy: 10°C
Wilgotnosc: 72%
Cisnienie: 1014 hPa
Kondycja: Clear
Widocznosc: greater than 10 km
2019/04/25 05:00 LZPP 250500Z 13013KT CAVOK 15/10 Q1014
 
EPLL - Lodz/Lublinek, Poland
Distance from station: NNE 191km
Aktualizacja: Thu, 25/04/2019 07:00 CEST
Clear
Clear
 Wind from ESE
Wiatr: ESE 9 km/h
Temperatura: 13°C
Punkt rosy: 8°C
Wilgotnosc: 72%
Cisnienie: 1013 hPa
Kondycja: Clear
Widocznosc: greater than 10 km
2019/04/25 05:00 EPLL 250500Z 11005KT 070V150 CAVOK 13/08 Q1013
LKPD - Pardubice, Czech Republic
Distance from station: W 200km
Aktualizacja: Thu, 25/04/2019 07:00 CEST
Clear
Clear
 Wind from varies
Wiatr: varies 4 km/h
Temperatura: 9°C
Punkt rosy: 8°C
Wilgotnosc: 94%
Cisnienie: 1012 hPa
Kondycja: Clear
Widocznosc: greater than 10 km
2019/04/25 05:00 LKPD 250500Z VRB02KT CAVOK 09/08 Q1012 NOSIG

Metar display script from Saratoga-Weather.org